• Join FlightAware (Why Join?)
  • Login
  • US Flag 
03:19PM EDT


 

Airport Tracker/Info


-or-


 

Live Flight TrackerFlight Track Log ✈ AAL963 ✈ 17-Aug-2013 ✈ KDFW - SBGR / GRU

Flight Track Log - Related Links

Times and Time Zones

All times are in EDT time to prevent confusion due to time zone crossing. See the AAL963 flight status page for this flight to view local times or setup timezone preferences in your user account.

Time Position Orientation Groundspeed Altitude Reporting Facility
EDT Latitude Longitude Course Direction KTS MPH feet Rate Location/Type
09:33PM 32.9380 -97.0550 343° North 207 238 2,000  Level FlightAware
09:34PM 32.9610 -97.0630 344° North 220 253 2,700 1,620 Climbing FlightAware
09:34PM 32.9820 -97.0700 344° North 241 277 3,200 1,500 Climbing FlightAware
09:34PM 32.9960 -97.0760 340° North 251 289 3,500 1,500 Climbing FlightAware
09:34PM 33.0030 -97.0820 324° Northwest 256 295 3,700 1,860 Climbing FlightAware
09:35PM 33.0090 -97.0920 306° West 269 310 4,000 1,740 Climbing FlightAware
09:35PM 33.0120 -97.1020 290° West 272 313 4,200 2,280 Climbing FlightAware
09:35PM 33.0130 -97.1100 278° West 275 316 4,500 3,720 Climbing FlightAware
09:35PM 33.0130 -97.1150 270° West 275 316 4,700 2,760 Climbing FlightAware
09:35PM 33.0100 -97.1480 264° West 273 314 5,700 2,820 Climbing FlightAware
09:35PM 33.0080 -97.1700 264° West 272 313 6,400 2,520 Climbing FlightAware
09:36PM 33.0040 -97.2050 262° West 281 323 7,300 2,040 Climbing FlightAware
09:36PM 32.9970 -97.2380 256° West 298 343 7,900 1,680 Climbing FlightAware
09:36PM 32.9920 -97.2480 239° Southwest 305 351 8,100 1,500 Climbing FlightAware
09:36PM 32.9840 -97.2590 229° Southwest 309 356 8,300 2,100 Climbing FlightAware
09:37PM 32.9620 -97.2800 219° Southwest 314 361 9,100 2,520 Climbing FlightAware
09:37PM 32.9520 -97.2860 207° Southwest 313 360 9,500 3,000 Climbing FlightAware
09:37PM 32.9460 -97.2890 203° Southwest 312 359 9,700 2,280 Climbing FlightAware
09:37PM 32.9250 -97.2930 189° South 318 366 10,200 1,860 Climbing FlightAware
09:38PM 32.8900 -97.2830 167° South 332 382 10,900 1,320 Climbing FlightAware
09:38PM 32.8420 -97.2470 148° Southeast 367 422 11,500 1,020 Climbing FlightAware
09:39PM 32.7890 -97.2040 146° Southeast 404 465 12,100 1,500 Climbing FlightAware
09:39PM 32.7370 -97.1630 146° Southeast 420 483 13,200 2,100 Climbing FlightAware
09:40PM 32.6780 -97.1170 147° Southeast 428 493 14,500 2,220 Climbing FlightAware
09:41PM 32.6150 -97.0690 147° Southeast 432 497 16,000 2,160 Climbing FlightAware
09:41PM 32.5640 -97.0300 147° Southeast 438 504 17,000 1,980 Climbing FlightAware
09:42PM 32.4980 -96.9790 147° Southeast 447 514 18,300 1,860 Climbing FlightAware
09:42PM 32.4390 -96.9340 147° Southeast 452 520 19,300 1,680 Climbing FlightAware
09:43PM 32.3783 -96.8880 147° Southeast 464 534 20,200 1,560 Climbing FlightAware ADS-B
09:43PM 32.3100 -96.8360 147° Southeast 475 547 21,200 1,620 Climbing FlightAware
09:44PM 32.2915 -96.8244 152° Southeast 476 548 21,500 1,800 Climbing FlightAware ADS-B
09:44PM 32.2301 -96.7957 158° South 478 550 22,400 1,560 Climbing FlightAware ADS-B
09:45PM 32.1649 -96.7696 161° South 485 558 23,100 1,740 Climbing FlightAware ADS-B
09:45PM 32.0993 -96.7439 162° South 484 557 24,200 1,920 Climbing FlightAware ADS-B
09:46PM 32.0352 -96.7193 162° South 487 560 25,100 1,320 Climbing FlightAware ADS-B
09:46PM 31.9691 -96.6947 162° South 496 571 25,600 1,200 Climbing FlightAware ADS-B
09:47PM 31.8976 -96.6679 162° South 501 577 26,400 1,200 Climbing FlightAware ADS-B
09:47PM 31.8306 -96.6424 162° South 506 582 26,900 1,200 Climbing FlightAware ADS-B
09:48PM 31.7634 -96.6143 160° South 513 590 27,600 1,440 Climbing FlightAware ADS-B
09:49PM 31.5531 -96.5274 161° South 518 596 29,900 1,440 Climbing FlightAware ADS-B
09:50PM 31.4837 -96.4998 161° South 520 598 30,600 1,080 Climbing FlightAware ADS-B
09:50PM 31.4145 -96.4741 162° South 522 601 31,000 360 Climbing FlightAware ADS-B
09:51PM 31.3436 -96.4481 163° South 519 597 31,000  Level FlightAware ADS-B
09:51PM 31.2739 -96.4222 162° South 516 594 31,000  Level FlightAware ADS-B
09:52PM 31.2183 -96.4009 162° South 510 587 31,000  Level FlightAware ADS-B
09:52PM 31.1724 -96.3715 148° Southeast 513 590 31,000  Level FlightAware ADS-B
09:52PM 31.1391 -96.3397 141° Southeast 516 594 31,000  Level FlightAware ADS-B
09:53PM 31.0865 -96.2827 137° Southeast 513 590 31,000  Level FlightAware ADS-B
09:54PM 30.9837 -96.1647 135° Southeast 511 588 31,000  Level FlightAware ADS-B
09:54PM 30.9332 -96.1059 135° Southeast 511 588 31,000  Level FlightAware ADS-B
09:55PM 30.8829 -96.0474 135° Southeast 511 588 31,000  Level FlightAware ADS-B
09:57PM 30.6313 -95.7552 135° Southeast 510 587 31,000  Level FlightAware ADS-B
09:58PM 30.5780 -95.6937 135° Southeast 512 589 31,000  Level FlightAware ADS-B
09:58PM 30.5277 -95.6354 135° Southeast 513 590 31,000  Level FlightAware ADS-B
09:59PM 30.4219 -95.5137 135° Southeast 513 590 31,000  Level FlightAware ADS-B
10:01PM 30.3094 -95.3846 135° Southeast 508 585 31,000  Level FlightAware ADS-B
10:03PM 30.1074 -95.1539 135° Southeast 503 579 31,000  Level FlightAware ADS-B
10:04PM 30.0078 -95.0406 135° Southeast 502 578 31,000  Level FlightAware ADS-B
10:04PM 29.9575 -94.9837 136° Southeast 503 579 31,000  Level FlightAware ADS-B
10:05PM 29.9074 -94.9269 135° Southeast 504 580 31,000  Level FlightAware ADS-B
10:05PM 29.8571 -94.8700 136° Southeast 504 580 31,000  Level FlightAware ADS-B
10:06PM 29.8069 -94.8133 136° Southeast 503 579 31,000  Level FlightAware ADS-B
10:09PM 29.5038 -94.4729 136° Southeast 500 575 31,000  Level FlightAware ADS-B
10:10PM 29.4029 -94.3601 136° Southeast 506 582 31,000  Level FlightAware ADS-B
10:10PM 29.3479 -94.2989 136° Southeast 506 582 31,000  Level FlightAware ADS-B
10:11PM 29.2973 -94.2425 136° Southeast 507 583 31,000  Level FlightAware ADS-B
10:12PM 29.1403 -94.0672 136° Southeast 506 582 31,000  Level Houston Center
10:13PM 29.0403 -93.9553 136° Southeast 504 580 31,000  Level Houston Center
10:14PM 28.9389 -93.8444 136° Southeast 506 582 31,000  Level Houston Center
10:15PM 28.8378 -93.7333 136° Southeast 506 582 31,000  Level Houston Center
10:16PM 28.7356 -93.6228 137° Southeast 506 582 31,000 -60 Level Houston Center
10:17PM 28.6397 -93.5169 136° Southeast 506 582 30,900  Descending Houston Center
10:18PM 28.5331 -93.3997 136° Southeast 507 583 31,000  Climbing Houston Center
10:19PM 28.4314 -93.2892 136° Southeast 506 582 31,000  Level Houston Center
10:20PM 28.3353 -93.1853 136° Southeast 505 581 31,000 -60 Level Houston Center
10:21PM 28.2336 -93.0750 136° Southeast 505 581 30,900 -60 Descending Houston Center
10:22PM 28.1122 -92.9450 137° Southeast 503 579 30,900  Level Houston Center
10:23PM 28.0111 -92.8347 136° Southeast 504 580 31,000  Climbing Houston Center
10:24PM 27.9081 -92.7286 138° Southeast 503 579 31,000  Level Houston Center
10:25PM 27.8081 -92.6172 135° Southeast 504 580 31,000  Level Houston Center
10:27PM 27.7044 -92.5081 137° Southeast 509 586 31,000 -60 Level Houston Center
10:28PM 27.6025 -92.3994 137° Southeast 506 582 30,900 -60 Descending Houston Center
10:29PM 27.4997 -92.2911 137° Southeast 506 582 30,900  Level Houston Center
10:30PM 27.3983 -92.1850 137° Southeast 501 577 30,900  Level Houston Center
10:31PM 27.2972 -92.0797 137° Southeast 498 573 31,000  Climbing Houston Center
10:32PM 27.1964 -91.9742 137° Southeast 496 571 30,900  Descending Houston Center
10:34PM 26.9994 -91.7973 144° Southeast  Level FlightAware Approximate
10:41PM 26.2511 -91.2051 145° Southeast  Level FlightAware Approximate
10:42PM 26.1442 -91.1208 145° Southeast  Level FlightAware Approximate
10:43PM 26.0372 -91.0366 145° Southeast  Level FlightAware Approximate
10:44PM 25.9303 -90.9526 145° Southeast  Level FlightAware Approximate
10:45PM 25.8232 -90.8688 145° Southeast  Level FlightAware Approximate
10:46PM 25.7161 -90.7850 145° Southeast  Level FlightAware Approximate
10:47PM 25.6090 -90.7015 145° Southeast  Level FlightAware Approximate
10:48PM 25.5018 -90.6181 145° Southeast  Level FlightAware Approximate
10:49PM 25.3945 -90.5350 145° Southeast  Level FlightAware Approximate
10:50PM 25.2871 -90.4521 145° Southeast  Level FlightAware Approximate
10:51PM 25.1796 -90.3694 145° Southeast  Level FlightAware Approximate
10:52PM 25.0721 -90.2868 145° Southeast  Level FlightAware Approximate
10:53PM 24.9646 -90.2043 145° Southeast  Level FlightAware Approximate
10:54PM 24.8570 -90.1219 145° Southeast  Level FlightAware Approximate
10:55PM 24.7494 -90.0398 145° Southeast  Level FlightAware Approximate
10:56PM 24.6417 -89.9577 145° Southeast  Level FlightAware Approximate
10:57PM 24.5340 -89.8758 145° Southeast  Level FlightAware Approximate
10:58PM 24.4275 -89.7924 146° Southeast  Level FlightAware Approximate
10:59PM 24.3186 -89.7126 146° Southeast  Level FlightAware Approximate
11:00PM 24.2096 -89.6330 146° Southeast  Level FlightAware Approximate
11:01PM 24.1006 -89.5535 146° Southeast  Level FlightAware Approximate
11:02PM 23.9927 -89.4722 145° Southeast  Level FlightAware Approximate
11:03PM 23.8858 -89.3895 145° Southeast  Level FlightAware Approximate
11:04PM 23.7789 -89.3069 145° Southeast  Level FlightAware Approximate
11:05PM 23.6719 -89.2244 145° Southeast  Level FlightAware Approximate
11:06PM 23.5648 -89.1420 145° Southeast  Level FlightAware Approximate
11:07PM 23.4576 -89.0601 146° Southeast  Level FlightAware Approximate
11:07PM 23.3160 -88.9610 146° Southeast 480 552 31,000  Level FlightAware
11:07PM 23.2650 -88.9220 145° Southeast 479 551 31,000  Level FlightAware
11:08PM 23.2100 -88.8800 145° Southeast 479 551 31,000  Level FlightAware
11:08PM 23.1190 -88.8130 146° Southeast 480 552 31,000  Level FlightAware
11:09PM 23.0630 -88.7710 145° Southeast 480 552 31,000  Level FlightAware
11:10PM 23.0070 -88.7290 145° Southeast 480 552 31,000  Level FlightAware
11:10PM 22.9210 -88.6670 146° Southeast 480 552 31,000  Level FlightAware
11:11PM 22.8210 -88.5930 146° Southeast 482 555 31,000  Level FlightAware
11:12PM 22.7510 -88.5420 146° Southeast 484 557 31,000  Level FlightAware
11:12PM 22.6830 -88.4920 146° Southeast 483 556 31,000  Level FlightAware
11:13PM 22.6250 -88.4490 146° Southeast 485 558 31,000  Level FlightAware
11:13PM 22.5610 -88.3920 141° Southeast 486 559 31,000  Level FlightAware
11:14PM 22.5030 -88.3340 137° Southeast 488 562 31,000  Level FlightAware
11:15PM 22.4420 -88.2700 136° Southeast 488 562 31,000  Level FlightAware
11:15PM 22.3920 -88.2180 136° Southeast 488 562 31,000  Level FlightAware
11:16PM 22.3430 -88.1670 136° Southeast 488 562 31,000  Level FlightAware
11:16PM 22.2930 -88.1150 136° Southeast 488 562 31,000  Level FlightAware
11:17PM 22.2420 -88.0610 136° Southeast 488 562 31,000  Level FlightAware
11:18PM 22.1910 -88.0080 136° Southeast 488 562 31,000  Level FlightAware
11:18PM 22.1410 -87.9560 136° Southeast 488 562 31,000  Level FlightAware
11:19PM 22.0910 -87.9040 136° Southeast 488 562 31,000  Level FlightAware
11:20PM 22.0420 -87.8530 136° Southeast 488 562 31,000  Level FlightAware
11:20PM 21.9920 -87.8010 136° Southeast 488 562 31,000  Level FlightAware
11:21PM 21.9420 -87.7490 136° Southeast 488 562 31,000  Level FlightAware
11:21PM 21.7730 -87.5960 140° Southeast 486 559 31,000  Level FlightAware
11:22PM 21.7160 -87.5400 138° Southeast 486 559 31,000  Level FlightAware
11:23PM 21.6580 -87.4820 137° Southeast 486 559 31,000  Level FlightAware
11:23PM 21.5940 -87.4190 138° Southeast 488 562 31,000  Level FlightAware
11:24PM 21.5340 -87.3600 138° Southeast 489 563 31,000  Level FlightAware
11:24PM 21.4750 -87.3010 137° Southeast 490 564 31,000  Level FlightAware
11:25PM 21.4130 -87.2410 138° Southeast 489 563 31,000  Level FlightAware
11:26PM 21.3590 -87.1870 137° Southeast 488 562 31,000  Level FlightAware
11:26PM 21.3000 -87.1290 138° Southeast 488 562 31,000  Level FlightAware
11:27PM 21.2400 -87.0700 137° Southeast 488 562 31,000  Level FlightAware
11:27PM 21.1800 -87.0110 137° Southeast 488 562 31,000  Level FlightAware
11:28PM 21.1270 -86.9590 138° Southeast 488 562 31,000  Level FlightAware
11:28PM 21.0630 -86.8960 137° Southeast 490 564 31,000  Level FlightAware
11:29PM 21.0030 -86.8370 137° Southeast 490 564 31,000  Level FlightAware
11:30PM 20.9490 -86.7850 138° Southeast 491 565 31,000  Level FlightAware
11:30PM 20.8880 -86.7260 138° Southeast 491 565 31,000  Level FlightAware
11:31PM 20.8350 -86.6740 137° Southeast 493 567 31,000 60 Level FlightAware
11:31PM 20.7760 -86.6170 138° Southeast 495 570 31,100 780 Climbing FlightAware
11:32PM 20.7110 -86.5540 138° Southeast 494 568 32,000 1,320 Climbing FlightAware
11:33PM 20.6510 -86.4960 138° Southeast 494 568 32,800 840 Climbing FlightAware
11:33PM 20.5960 -86.4430 138° Southeast 490 564 33,000 180 Climbing FlightAware
11:34PM 20.5410 -86.3900 138° Southeast 492 566 33,000  Level FlightAware
11:34PM 20.4670 -86.3170 137° Southeast 493 567 33,000  Level FlightAware
11:35PM 20.4160 -86.2660 137° Southeast 493 567 33,000  Level FlightAware
11:36PM 20.3630 -86.2140 137° Southeast 493 567 33,000  Level FlightAware
11:36PM 20.3120 -86.1630 137° Southeast 493 567 33,000  Level FlightAware
11:37PM 20.2610 -86.1120 137° Southeast 493 567 33,000  Level FlightAware
11:37PM 20.1540 -86.0170 140° Southeast 494 568 33,000  Level FlightAware
11:38PM 20.0910 -85.9570 138° Southeast 494 568 33,000  Level FlightAware
11:39PM 20.0280 -85.8970 138° Southeast 495 570 33,000  Level FlightAware
11:39PM 19.9760 -85.8480 138° Southeast 495 570 33,000  Level FlightAware
11:40PM 19.9120 -85.7870 138° Southeast 494 568 33,000  Level FlightAware
11:40PM 19.8520 -85.7310 139° Southeast 493 567 33,000  Level FlightAware
11:41PM 19.7880 -85.6710 139° Southeast 494 568 33,000  Level FlightAware
11:42PM 19.7350 -85.6210 138° Southeast 494 568 33,000  Level FlightAware
11:42PM 19.6530 -85.5430 138° Southeast 494 568 33,000  Level FlightAware
11:43PM 19.5900 -85.4850 139° Southeast 495 570 33,000  Level FlightAware
11:44PM 19.5360 -85.4330 138° Southeast 495 570 33,000  Level FlightAware
11:44PM 19.4730 -85.3750 139° Southeast 493 567 33,000  Level FlightAware
11:45PM 19.4050 -85.3120 139° Southeast 493 567 33,000  Level FlightAware
11:45PM 19.3320 -85.2430 138° Southeast 492 566 33,000  Level FlightAware
11:46PM 19.2500 -85.1660 138° Southeast 492 566 33,000  Level FlightAware
11:47PM 19.1970 -85.1150 138° Southeast 492 566 33,000  Level FlightAware
11:48PM 19.1450 -85.0660 138° Southeast 492 566 33,000  Level FlightAware
11:48PM 19.0930 -85.0170 138° Southeast 492 566 33,000  Level FlightAware
11:49PM 19.0420 -84.9680 138° Southeast 492 566 33,000  Level FlightAware
11:49PM 18.9890 -84.9170 138° Southeast 492 566 33,000  Level FlightAware
11:50PM 18.9370 -84.8680 138° Southeast 492 566 33,000  Level FlightAware
11:51PM 18.8850 -84.8180 138° Southeast 492 566 33,000  Level FlightAware
11:51PM 18.8320 -84.7680 138° Southeast 492 566 33,000  Level FlightAware
11:52PM 18.7800 -84.7180 138° Southeast 492 566 33,000  Level FlightAware
11:52PM 18.7280 -84.6690 138° Southeast 492 566 33,000  Level FlightAware
11:53PM 18.6750 -84.6190 138° Southeast 492 566 33,000  Level FlightAware
11:54PM 18.6230 -84.5700 138° Southeast 492 566 33,000  Level FlightAware
11:54PM 18.5700 -84.5190 138° Southeast 492 566 33,000  Level FlightAware
11:55PM 18.5180 -84.4700 138° Southeast 492 566 33,000  Level FlightAware
11:55PM 18.4670 -84.4210 138° Southeast 492 566 33,000  Level FlightAware
11:58PM 18.3148 -84.1695 125° Southeast  Level FlightAware Approximate
11:59PM 18.2393 -84.0546 125° Southeast  Level FlightAware Approximate
12:00AM 18.1636 -83.9398 125° Southeast  Level FlightAware Approximate
12:01AM 18.0879 -83.8251 125° Southeast  Level FlightAware Approximate
12:02AM 18.0121 -83.7105 125° Southeast  Level FlightAware Approximate
12:03AM 17.9329 -83.5990 135° Southeast  Level FlightAware Approximate
12:04AM 17.8382 -83.5013 135° Southeast  Level FlightAware Approximate
12:05AM 17.7435 -83.4036 136° Southeast  Level FlightAware Approximate
12:06AM 17.6488 -83.3061 136° Southeast  Level FlightAware Approximate
12:07AM 17.5539 -83.2087 136° Southeast  Level FlightAware Approximate
12:08AM 17.4591 -83.1113 136° Southeast  Level FlightAware Approximate
12:09AM 17.3640 -83.0143 139° Southeast  Level FlightAware Approximate
12:10AM 17.2641 -82.9228 139° Southeast  Level FlightAware Approximate
12:11AM 17.1640 -82.8315 139° Southeast  Level FlightAware Approximate
12:12AM 17.0640 -82.7403 139° Southeast  Level FlightAware Approximate
12:13AM 16.9639 -82.6491 139° Southeast  Level FlightAware Approximate
12:14AM 16.8637 -82.5581 139° Southeast  Level FlightAware Approximate
12:15AM 16.7636 -82.4671 139° Southeast  Level FlightAware Approximate
12:16AM 16.6633 -82.3763 139° Southeast  Level FlightAware Approximate
12:17AM 16.5631 -82.2856 139° Southeast  Level FlightAware Approximate
12:18AM 16.4628 -82.1949 139° Southeast  Level FlightAware Approximate
12:19AM 16.3701 -82.0960 134° Southeast  Level FlightAware Approximate
12:20AM 16.2784 -81.9961 134° Southeast  Level FlightAware Approximate
12:21AM 16.1866 -81.8962 134° Southeast  Level FlightAware Approximate
12:22AM 16.0948 -81.7964 134° Southeast  Level FlightAware Approximate
12:23AM 16.0030 -81.6967 134° Southeast  Level FlightAware Approximate
12:24AM 15.9111 -81.5971 134° Southeast  Level FlightAware Approximate
12:25AM 15.8192 -81.4976 134° Southeast  Level FlightAware Approximate
12:26AM 15.7272 -81.3981 134° Southeast  Level FlightAware Approximate
12:27AM 15.6352 -81.2988 134° Southeast  Level FlightAware Approximate
12:28AM 15.5432 -81.1995 134° Southeast  Level FlightAware Approximate
12:29AM 15.4511 -81.1004 134° Southeast  Level FlightAware Approximate
12:30AM 15.3589 -81.0013 134° Southeast  Level FlightAware Approximate
12:31AM 15.2667 -80.9023 134° Southeast  Level FlightAware Approximate
12:32AM 15.1745 -80.8034 134° Southeast  Level FlightAware Approximate
12:33AM 15.0822 -80.7046 134° Southeast  Level FlightAware Approximate
12:34AM 14.9886 -80.6074 142° Southeast  Level FlightAware Approximate
12:35AM 14.8839 -80.5229 142° Southeast  Level FlightAware Approximate
12:36AM 14.7792 -80.4385 142° Southeast  Level FlightAware Approximate
12:37AM 14.6745 -80.3542 142° Southeast  Level FlightAware Approximate
12:38AM 14.5698 -80.2700 142° Southeast  Level FlightAware Approximate
12:39AM 14.4650 -80.1858 142° Southeast  Level FlightAware Approximate
12:40AM 14.3602 -80.1018 142° Southeast  Level FlightAware Approximate
12:41AM 14.2554 -80.0178 142° Southeast  Level FlightAware Approximate
12:42AM 14.1505 -79.9338 142° Southeast  Level FlightAware Approximate
12:43AM 14.0456 -79.8500 142° Southeast  Level FlightAware Approximate
12:44AM 13.9407 -79.7662 142° Southeast  Level FlightAware Approximate
12:45AM 13.8357 -79.6825 142° Southeast  Level FlightAware Approximate
12:46AM 13.7308 -79.5989 142° Southeast  Level FlightAware Approximate
12:47AM 13.6258 -79.5154 142° Southeast  Level FlightAware Approximate
12:48AM 13.5208 -79.4319 142° Southeast  Level FlightAware Approximate
12:49AM 13.4157 -79.3485 142° Southeast  Level FlightAware Approximate
12:50AM 13.3106 -79.2652 142° Southeast  Level FlightAware Approximate
12:51AM 13.2055 -79.1820 142° Southeast  Level FlightAware Approximate
12:52AM 13.1004 -79.0988 142° Southeast  Level FlightAware Approximate
12:53AM 12.9952 -79.0157 142° Southeast  Level FlightAware Approximate
12:54AM 12.8900 -78.9327 142° Southeast  Level FlightAware Approximate
12:55AM 12.7848 -78.8497 142° Southeast  Level FlightAware Approximate
12:56AM 12.6795 -78.7668 142° Southeast  Level FlightAware Approximate
12:57AM 12.5743 -78.6840 142° Southeast  Level FlightAware Approximate
12:58AM 12.4690 -78.6012 142° Southeast  Level FlightAware Approximate
12:59AM 12.3636 -78.5186 143° Southeast  Level FlightAware Approximate
01:00AM 12.2583 -78.4359 143° Southeast  Level FlightAware Approximate
01:01AM 12.1529 -78.3534 143° Southeast  Level FlightAware Approximate
01:02AM 12.0475 -78.2709 143° Southeast  Level FlightAware Approximate
01:03AM 11.9421 -78.1885 143° Southeast  Level FlightAware Approximate
01:04AM 11.8367 -78.1061 143° Southeast  Level FlightAware Approximate
01:05AM 11.7312 -78.0238 143° Southeast  Level FlightAware Approximate
01:06AM 11.6257 -77.9416 143° Southeast  Level FlightAware Approximate
01:07AM 11.5202 -77.8594 143° Southeast  Level FlightAware Approximate
01:08AM 11.4147 -77.7773 143° Southeast  Level FlightAware Approximate
01:09AM 11.3091 -77.6952 143° Southeast  Level FlightAware Approximate
01:10AM 11.2035 -77.6132 143° Southeast  Level FlightAware Approximate
01:10AM 10.9800 -77.3650 143° Southeast 480 552 33,000  Level FlightAware
01:11AM 11.0981 -77.5314 143° Southeast  Level FlightAware Approximate
01:11AM 10.9650 -77.3050 104° East 481 554 33,000  Level FlightAware
01:11AM 10.9410 -77.2180 106° East 480 552 33,000  Level FlightAware
01:12AM 10.9230 -77.1490 105° East 480 552 33,000  Level FlightAware
01:13AM 10.9060 -77.0820 104° East 480 552 33,000  Level FlightAware
01:13AM 10.8880 -77.0150 105° East 480 552 33,000  Level FlightAware
01:14AM 10.8710 -76.9480 104° East 480 552 33,000  Level FlightAware
01:14AM 10.8530 -76.8820 106° East 480 552 33,000  Level FlightAware
01:15AM 10.8350 -76.8150 105° East 480 552 33,000  Level FlightAware
01:16AM 10.8180 -76.7480 104° East 480 552 33,000  Level FlightAware
01:17AM 10.7480 -76.4950 106° East 483 556 33,000  Level FlightAware
01:17AM 10.7190 -76.4210 112° Southeast 483 556 33,000  Level FlightAware
01:18AM 10.6680 -76.3610 131° Southeast 482 555 33,000  Level FlightAware
01:18AM 10.6100 -76.3100 139° Southeast 482 555 33,000  Level FlightAware
01:19AM 10.5500 -76.2580 140° Southeast 484 557 33,000  Level FlightAware
01:20AM 10.4900 -76.2060 140° Southeast 485 558 33,000  Level FlightAware
01:20AM 10.4310 -76.1550 140° Southeast 486 559 33,000  Level FlightAware
01:21AM 10.3700 -76.1030 140° Southeast 486 559 33,000  Level FlightAware
01:21AM 10.3110 -76.0520 140° Southeast 487 560 33,000  Level FlightAware
01:22AM 10.2500 -75.9990 139° Southeast 487 560 33,000  Level FlightAware
01:23AM 10.1890 -75.9470 140° Southeast 486 559 33,000  Level FlightAware
01:23AM 10.1290 -75.8950 140° Southeast 485 558 33,000  Level FlightAware
01:24AM 10.0720 -75.8450 139° Southeast 487 560 33,000  Level FlightAware
01:24AM 10.0100 -75.7900 139° Southeast 487 560 33,000  Level FlightAware
01:25AM 9.9510 -75.7370 138° Southeast 486 559 33,000  Level FlightAware
01:25AM 9.8940 -75.6850 138° Southeast 484 557 33,000  Level FlightAware
01:26AM 9.8360 -75.6330 139° Southeast 485 558 33,000  Level FlightAware
01:27AM 9.7770 -75.5820 140° Southeast 479 551 33,000  Level FlightAware
01:27AM 9.7160 -75.5300 140° Southeast 479 551 33,000  Level FlightAware
01:28AM 9.6570 -75.4790 140° Southeast 478 550 33,000  Level FlightAware
01:28AM 9.5980 -75.4280 140° Southeast 478 550 33,000  Level FlightAware
01:29AM 9.5400 -75.3790 140° Southeast 478 550 33,000  Level FlightAware
01:30AM 9.4810 -75.3290 140° Southeast 480 552 33,000  Level FlightAware
01:30AM 9.4190 -75.2750 139° Southeast 483 556 33,000  Level FlightAware
01:31AM 9.3610 -75.2240 139° Southeast 484 557 33,000  Level FlightAware
01:31AM 9.3040 -75.1730 139° Southeast 484 557 33,000  Level FlightAware
01:32AM 9.2430 -75.1180 138° Southeast 484 557 33,000  Level FlightAware
01:32AM 9.1890 -75.0700 139° Southeast 485 558 33,000  Level FlightAware
01:33AM 9.1250 -75.0130 139° Southeast 485 558 33,000  Level FlightAware
01:34AM 9.0660 -74.9610 139° Southeast 487 560 33,000  Level FlightAware
01:34AM 9.0070 -74.9080 138° Southeast 490 564 33,000  Level FlightAware
01:35AM 8.9470 -74.8540 138° Southeast 491 565 33,000  Level FlightAware
01:35AM 8.8940 -74.8070 139° Southeast 494 568 33,000  Level FlightAware
01:36AM 8.8390 -74.7490 134° Southeast 492 566 33,000  Level FlightAware
01:36AM 8.8050 -74.6910 121° Southeast 490 564 33,000  Level FlightAware
01:37AM 8.7630 -74.6150 119° Southeast 485 558 33,000  Level FlightAware
01:38AM 8.7220 -74.5420 120° Southeast 480 552 33,000  Level FlightAware
01:38AM 8.6900 -74.4840 119° Southeast 476 548 33,000  Level FlightAware
01:39AM 8.6520 -74.4160 119° Southeast 475 547 33,000  Level FlightAware
01:39AM 8.6090 -74.3380 119° Southeast 475 547 33,000  Level FlightAware
01:40AM 8.5770 -74.2810 120° Southeast 475 547 33,000  Level FlightAware
01:40AM 8.5400 -74.2120 118° Southeast 475 547 33,000  Level FlightAware
01:41AM 8.4980 -74.1350 119° Southeast 474 545 33,000  Level FlightAware
01:42AM 8.4680 -74.0800 119° Southeast 473 544 33,000  Level FlightAware
01:42AM 8.4300 -74.0090 118° Southeast 474 545 33,000  Level FlightAware
01:43AM 8.3890 -73.9360 120° Southeast 476 548 33,000  Level FlightAware
01:43AM 8.3600 -73.8820 118° Southeast 477 549 33,000  Level FlightAware
01:44AM 8.2990 -73.7930 125° Southeast 478 550 33,000  Level FlightAware
01:45AM 8.2470 -73.7400 135° Southeast 478 550 33,000  Level FlightAware
01:46AM 8.1770 -73.6660 134° Southeast 477 549 33,000  Level FlightAware
01:46AM 8.1100 -73.5960 134° Southeast 477 549 33,000  Level FlightAware
01:47AM 8.0630 -73.5470 134° Southeast 477 549 33,000  Level FlightAware
01:47AM 8.0180 -73.5010 135° Southeast 477 549 33,000  Level FlightAware
01:48AM 7.9700 -73.4500 134° Southeast 477 549 33,000  Level FlightAware
01:49AM 7.9230 -73.4010 134° Southeast 477 549 33,000 -60 Level FlightAware
01:49AM 7.7850 -73.4200 188° South 33,000 -60 Level FlightAware
01:50AM 7.6420 -73.3480 153° Southeast 33,000 -60 Level FlightAware
01:53AM 7.3984 -73.1454 140° Southeast  Level Estimated
01:54AM 7.2961 -73.0605 141° Southeast  Level Estimated
01:55AM 7.1938 -72.9756 141° Southeast  Level Estimated
01:56AM 7.0916 -72.8907 141° Southeast  Level Estimated
01:57AM 6.9893 -72.8059 141° Southeast  Level Estimated
01:58AM 6.8870 -72.7211 141° Southeast  Level Estimated
01:59AM 6.7846 -72.6364 141° Southeast  Level Estimated
02:00AM 6.6823 -72.5517 141° Southeast  Level Estimated
02:01AM 6.5799 -72.4670 141° Southeast  Level Estimated
02:02AM 6.4776 -72.3824 141° Southeast  Level Estimated
02:03AM 6.3752 -72.2978 141° Southeast  Level Estimated
02:04AM 6.2728 -72.2132 141° Southeast  Level Estimated
02:05AM 6.1704 -72.1286 141° Southeast  Level Estimated
02:06AM 6.0679 -72.0442 141° Southeast  Level Estimated
02:07AM 5.9655 -71.9597 141° Southeast  Level Estimated
02:08AM 5.8630 -71.8752 141° Southeast  Level Estimated
02:09AM 5.7606 -71.7908 141° Southeast  Level Estimated
02:10AM 5.6581 -71.7065 141° Southeast  Level Estimated
02:11AM 5.5556 -71.6221 141° Southeast  Level Estimated
02:12AM 5.4531 -71.5378 141° Southeast  Level Estimated
02:13AM 5.3506 -71.4535 141° Southeast  Level Estimated
02:14AM 5.2481 -71.3692 141° Southeast  Level Estimated
02:15AM 5.1455 -71.2850 141° Southeast  Level Estimated
02:16AM 5.0430 -71.2008 141° Southeast  Level Estimated
02:17AM 4.9404 -71.1166 141° Southeast  Level Estimated
02:18AM 4.8378 -71.0324 141° Southeast  Level Estimated
02:19AM 4.7352 -70.9483 141° Southeast  Level Estimated
02:20AM 4.6332 -70.8646 141° Southeast  Level Estimated
02:21AM 4.5311 -70.7810 141° Southeast  Level Estimated
02:22AM 4.4291 -70.6974 141° Southeast  Level Estimated
02:23AM 4.3270 -70.6138 141° Southeast  Level Estimated
02:24AM 4.2249 -70.5302 141° Southeast  Level Estimated
02:25AM 4.1228 -70.4467 141° Southeast  Level Estimated
02:26AM 4.0207 -70.3632 141° Southeast  Level Estimated
02:27AM 3.9186 -70.2797 141° Southeast  Level Estimated
02:28AM 3.8165 -70.1962 141° Southeast  Level Estimated
02:29AM 3.7144 -70.1127 141° Southeast  Level Estimated
02:30AM 3.6122 -70.0293 141° Southeast  Level Estimated
02:31AM 3.5101 -69.9459 141° Southeast  Level Estimated
02:32AM 3.4079 -69.8625 141° Southeast  Level Estimated
02:33AM 3.3058 -69.7791 141° Southeast  Level Estimated
02:34AM 3.2036 -69.6957 141° Southeast  Level Estimated
02:35AM 3.1014 -69.6124 141° Southeast  Level Estimated
02:36AM 2.9993 -69.5290 141° Southeast  Level Estimated
02:37AM 2.8971 -69.4457 141° Southeast  Level Estimated
02:38AM 2.7949 -69.3624 141° Southeast  Level Estimated
02:39AM 2.6927 -69.2791 141° Southeast  Level Estimated
02:40AM 2.5905 -69.1958 141° Southeast  Level Estimated
02:41AM 2.4883 -69.1125 141° Southeast  Level Estimated
02:42AM 2.3861 -69.0293 141° Southeast  Level Estimated
02:43AM 2.2838 -68.9461 141° Southeast  Level Estimated
02:44AM 2.1816 -68.8628 141° Southeast  Level Estimated
02:45AM 2.0794 -68.7796 141° Southeast  Level Estimated
02:46AM 1.9772 -68.6964 141° Southeast  Level Estimated
02:47AM 1.8749 -68.6132 141° Southeast  Level Estimated
02:48AM 1.7727 -68.5300 141° Southeast  Level Estimated
02:49AM 1.6704 -68.4468 141° Southeast  Level Estimated
02:50AM 1.5682 -68.3637 141° Southeast  Level Estimated
02:51AM 1.4660 -68.2805 141° Southeast  Level Estimated
02:52AM 1.3635 -68.1972 141° Southeast  Level Estimated
02:53AM 1.2611 -68.1139 141° Southeast  Level Estimated
02:54AM 1.1586 -68.0306 141° Southeast  Level Estimated
02:55AM 1.0562 -67.9473 141° Southeast  Level Estimated
02:56AM 0.9538 -67.8641 141° Southeast  Level Estimated
02:57AM 0.8513 -67.7808 141° Southeast  Level Estimated
02:58AM 0.7489 -67.6975 141° Southeast  Level Estimated
02:59AM 0.6464 -67.6143 141° Southeast  Level Estimated
03:00AM 0.5440 -67.5310 141° Southeast  Level Estimated
03:01AM 0.4415 -67.4477 141° Southeast  Level Estimated
03:02AM 0.3391 -67.3645 141° Southeast  Level Estimated
03:03AM 0.2366 -67.2812 141° Southeast  Level Estimated
03:04AM 0.1342 -67.1980 141° Southeast  Level Estimated
03:05AM 0.0317 -67.1148 141° Southeast  Level Estimated
03:06AM -0.0707 -67.0315 141° Southeast  Level Estimated
03:07AM -0.1732 -66.9482 141° Southeast  Level Estimated
03:08AM -0.2756 -66.8650 141° Southeast  Level Estimated
03:09AM -0.3781 -66.7818 141° Southeast  Level Estimated
03:10AM -0.4805 -66.6985 141° Southeast  Level Estimated
03:11AM -0.5830 -66.6152 141° Southeast  Level Estimated
03:12AM -0.6854 -66.5320 141° Southeast  Level Estimated
03:13AM -0.7879 -66.4487 141° Southeast  Level Estimated
03:14AM -0.8903 -66.3654 141° Southeast  Level Estimated
03:15AM -0.9928 -66.2822 141° Southeast  Level Estimated
03:16AM -1.0952 -66.1989 141° Southeast  Level Estimated
03:17AM -1.1977 -66.1156 141° Southeast  Level Estimated
03:18AM -1.3001 -66.0323 141° Southeast  Level Estimated
03:19AM -1.4025 -65.9490 141° Southeast  Level Estimated
03:20AM -1.5050 -65.8657 141° Southeast  Level Estimated
03:21AM -1.6074 -65.7824 141° Southeast  Level Estimated
03:22AM -1.7098 -65.6991 141° Southeast  Level Estimated
03:23AM -1.8123 -65.6158 141° Southeast  Level Estimated
03:24AM -1.9147 -65.5324 141° Southeast  Level Estimated
03:25AM -2.0171 -65.4491 141° Southeast  Level Estimated
03:26AM -2.1195 -65.3657 141° Southeast  Level Estimated
03:27AM -2.2219 -65.2823 141° Southeast  Level Estimated
03:28AM -2.3243 -65.1990 141° Southeast  Level Estimated
03:29AM -2.4267 -65.1156 141° Southeast  Level Estimated
03:30AM -2.5291 -65.0322 141° Southeast  Level Estimated
03:31AM -2.6315 -64.9488 141° Southeast  Level Estimated
03:32AM -2.7339 -64.8653 141° Southeast  Level Estimated
03:33AM -2.8362 -64.7819 141° Southeast  Level Estimated
03:34AM -2.9386 -64.6984 141° Southeast  Level Estimated
03:35AM -3.0410 -64.6149 141° Southeast  Level Estimated
03:36AM -3.1433 -64.5314 141° Southeast  Level Estimated
03:37AM -3.2457 -64.4479 141° Southeast  Level Estimated
03:38AM -3.3480 -64.3644 141° Southeast  Level Estimated
03:39AM -3.4504 -64.2809 141° Southeast  Level Estimated
03:40AM -3.5527 -64.1973 141° Southeast  Level Estimated
03:41AM -3.6550 -64.1137 141° Southeast  Level Estimated
03:42AM -3.7573 -64.0301 141° Southeast  Level Estimated
03:43AM -3.8596 -63.9465 141° Southeast  Level Estimated
03:44AM -3.9619 -63.8629 141° Southeast  Level Estimated
03:45AM -4.0642 -63.7792 141° Southeast  Level Estimated
03:46AM -4.1665 -63.6955 141° Southeast  Level Estimated
03:47AM -4.2688 -63.6118 141° Southeast  Level Estimated
03:48AM -4.3710 -63.5281 141° Southeast  Level Estimated
03:49AM -4.4733 -63.4444 141° Southeast  Level Estimated
03:50AM -4.5755 -63.3606 141° Southeast  Level Estimated
03:51AM -4.6777 -63.2768 141° Southeast  Level Estimated
03:52AM -4.7800 -63.1930 141° Southeast  Level Estimated
03:53AM -4.8822 -63.1091 141° Southeast  Level Estimated
03:54AM -4.9844 -63.0253 141° Southeast  Level Estimated
03:55AM -5.0866 -62.9414 141° Southeast  Level Estimated
03:56AM -5.1887 -62.8574 141° Southeast  Level Estimated
03:57AM -5.2909 -62.7735 141° Southeast  Level Estimated
03:58AM -5.3931 -62.6895 141° Southeast  Level Estimated
03:59AM -5.4952 -62.6055 141° Southeast  Level Estimated
04:00AM -5.5974 -62.5215 141° Southeast  Level Estimated
04:01AM -5.6995 -62.4374 141° Southeast  Level Estimated
04:02AM -5.8016 -62.3533 141° Southeast  Level Estimated
04:03AM -5.9037 -62.2692 141° Southeast  Level Estimated
04:04AM -6.0058 -62.1851 141° Southeast  Level Estimated
04:05AM -6.1079 -62.1009 141° Southeast  Level Estimated
04:06AM -6.2099 -62.0167 141° Southeast  Level Estimated
04:07AM -6.3120 -61.9324 141° Southeast  Level Estimated
04:08AM -6.4140 -61.8481 141° Southeast  Level Estimated
04:09AM -6.5160 -61.7638 141° Southeast  Level Estimated
04:10AM -6.6180 -61.6795 141° Southeast  Level Estimated
04:11AM -6.7200 -61.5951 141° Southeast  Level Estimated
04:12AM -6.8220 -61.5106 141° Southeast  Level Estimated
04:13AM -6.9240 -61.4262 141° Southeast  Level Estimated
04:14AM -7.0259 -61.3417 141° Southeast  Level Estimated
04:15AM -7.1278 -61.2572 141° Southeast  Level Estimated
04:16AM -7.2298 -61.1726 141° Southeast  Level Estimated
04:17AM -7.3316 -61.0880 141° Southeast  Level Estimated
04:18AM -7.4335 -61.0033 141° Southeast  Level Estimated
04:19AM -7.5354 -60.9186 141° Southeast  Level Estimated
04:20AM -7.6373 -60.8339 140° Southeast  Level Estimated
04:21AM -7.7391 -60.7491 140° Southeast  Level Estimated
04:22AM -7.8409 -60.6643 140° Southeast  Level Estimated
04:23AM -7.9427 -60.5795 140° Southeast  Level Estimated
04:24AM -8.0445 -60.4946 140° Southeast  Level Estimated
04:25AM -8.1463 -60.4097 140° Southeast  Level Estimated
04:26AM -8.2480 -60.3247 140° Southeast  Level Estimated
04:27AM -8.3498 -60.2397 140° Southeast  Level Estimated
04:28AM -8.4515 -60.1546 140° Southeast  Level Estimated
04:29AM -8.5532 -60.0695 140° Southeast  Level Estimated
04:30AM -8.6549 -59.9843 140° Southeast  Level Estimated
04:31AM -8.7565 -59.8991 140° Southeast  Level Estimated
04:32AM -8.8581 -59.8139 140° Southeast  Level Estimated
04:33AM -8.9598 -59.7286 140° Southeast  Level Estimated
04:34AM -9.0614 -59.6433 140° Southeast  Level Estimated
04:35AM -9.1629 -59.5579 140° Southeast  Level Estimated
04:36AM -9.2645 -59.4724 140° Southeast  Level Estimated
04:37AM -9.3660 -59.3869 140° Southeast  Level Estimated
04:38AM -9.4676 -59.3014 140° Southeast  Level Estimated
04:39AM -9.5691 -59.2158 140° Southeast  Level Estimated
04:40AM -9.6706 -59.1302 140° Southeast  Level Estimated
04:41AM -9.7720 -59.0445 140° Southeast  Level Estimated
04:42AM -9.8735 -58.9587 140° Southeast  Level Estimated
04:43AM -9.9747 -58.8731 140° Southeast  Level Estimated
04:44AM -10.0759 -58.7874 140° Southeast  Level Estimated
04:45AM -10.1771 -58.7016 140° Southeast  Level Estimated
04:46AM -10.2782 -58.6158 140° Southeast  Level Estimated
04:47AM -10.3794 -58.5300 140° Southeast  Level Estimated
04:48AM -10.4805 -58.4440 140° Southeast  Level Estimated
04:49AM -10.5816 -58.3581 140° Southeast  Level Estimated
04:50AM -10.6827 -58.2720 140° Southeast  Level Estimated
04:51AM -10.7837 -58.1860 140° Southeast  Level Estimated
04:52AM -10.8848 -58.0998 140° Southeast  Level Estimated
04:53AM -10.9858 -58.0136 140° Southeast  Level Estimated
04:54AM -11.0868 -57.9273 140° Southeast  Level Estimated
04:55AM -11.1877 -57.8410 140° Southeast  Level Estimated
04:56AM -11.2887 -57.7547 140° Southeast  Level Estimated
04:57AM -11.3896 -57.6682 140° Southeast  Level Estimated
04:58AM -11.4904 -57.5817 140° Southeast  Level Estimated
04:59AM -11.5913 -57.4951 140° Southeast  Level Estimated
05:00AM -11.6921 -57.4085 140° Southeast  Level Estimated
05:01AM -11.7929 -57.3218 140° Southeast  Level Estimated
05:02AM -11.8937 -57.2351 140° Southeast  Level Estimated
05:03AM -11.9945 -57.1482 140° Southeast  Level Estimated
05:04AM -12.0952 -57.0613 140° Southeast  Level Estimated
05:05AM -12.1959 -56.9744 140° Southeast  Level Estimated
05:06AM -12.2966 -56.8874 140° Southeast  Level Estimated
05:07AM -12.3974 -56.8001 140° Southeast  Level Estimated
05:08AM -12.4982 -56.7128 140° Southeast  Level Estimated
05:09AM -12.5989 -56.6255 140° Southeast  Level Estimated
05:10AM -12.6997 -56.5380 140° Southeast  Level Estimated
05:11AM -12.8004 -56.4505 140° Southeast  Level Estimated
05:12AM -12.9011 -56.3629 140° Southeast  Level Estimated
05:13AM -13.0017 -56.2753 140° Southeast  Level Estimated
05:14AM -13.1023 -56.1875 140° Southeast  Level Estimated
05:15AM -13.2029 -56.0998 140° Southeast  Level Estimated
05:16AM -13.3035 -56.0119 140° Southeast  Level Estimated
05:17AM -13.4040 -55.9240 140° Southeast  Level Estimated
05:18AM -13.5045 -55.8359 140° Southeast  Level Estimated
05:19AM -13.6050 -55.7478 140° Southeast  Level Estimated
05:20AM -13.7054 -55.6597 140° Southeast  Level Estimated
05:21AM -13.8058 -55.5714 140° Southeast  Level Estimated
05:22AM -13.9062 -55.4831 140° Southeast  Level Estimated
05:23AM -14.0066 -55.3947 139° Southeast  Level Estimated
05:24AM -14.1069 -55.3063 139° Southeast  Level Estimated
05:25AM -14.2072 -55.2177 139° Southeast  Level Estimated
05:26AM -14.3074 -55.1291 139° Southeast  Level Estimated
05:27AM -14.4076 -55.0404 139° Southeast  Level Estimated
05:28AM -14.5078 -54.9516 139° Southeast  Level Estimated
05:29AM -14.6079 -54.8628 139° Southeast  Level Estimated
05:30AM -14.7080 -54.7738 139° Southeast  Level Estimated
05:31AM -14.8081 -54.6848 139° Southeast  Level Estimated
05:32AM -14.9082 -54.5957 139° Southeast  Level Estimated
05:33AM -15.0082 -54.5065 139° Southeast  Level Estimated
05:34AM -15.1082 -54.4172 139° Southeast  Level Estimated
05:35AM -15.2081 -54.3279 139° Southeast  Level Estimated
05:36AM -15.3080 -54.2384 139° Southeast  Level Estimated
05:37AM -15.4079 -54.1489 139° Southeast  Level Estimated
05:38AM -15.5077 -54.0593 139° Southeast  Level Estimated
05:39AM -15.6075 -53.9696 139° Southeast  Level Estimated
05:40AM -15.7073 -53.8798 139° Southeast  Level Estimated
05:41AM -15.8070 -53.7899 139° Southeast  Level Estimated
05:42AM -15.9067 -53.6999 139° Southeast  Level Estimated
05:43AM -16.0063 -53.6099 139° Southeast  Level Estimated
05:44AM -16.1060 -53.5197 139° Southeast  Level Estimated
05:45AM -16.2055 -53.4295 139° Southeast  Level Estimated
05:46AM -16.3051 -53.3392 139° Southeast  Level Estimated
05:47AM -16.4046 -53.2488 139° Southeast  Level Estimated
05:48AM -16.5040 -53.1582 139° Southeast  Level Estimated
05:49AM -16.6035 -53.0676 139° Southeast  Level Estimated
05:50AM -16.7028 -52.9770 139° Southeast  Level Estimated
05:51AM -16.8022 -52.8862 139° Southeast  Level Estimated
05:52AM -16.9015 -52.7953 139° Southeast  Level Estimated
05:53AM -17.0007 -52.7043 139° Southeast  Level Estimated
05:54AM -17.1000 -52.6132 139° Southeast  Level Estimated
05:55AM -17.1991 -52.5220 139° Southeast  Level Estimated
05:56AM -17.2983 -52.4308 139° Southeast  Level Estimated
05:57AM -17.3974 -52.3394 139° Southeast  Level Estimated
05:58AM -17.4964 -52.2479 139° Southeast  Level Estimated
05:59AM -17.5955 -52.1563 139° Southeast  Level Estimated
06:00AM -17.6944 -52.0647 139° Southeast  Level Estimated
06:01AM -17.7934 -51.9729 139° Southeast  Level Estimated
06:02AM -17.8923 -51.8810 139° Southeast  Level Estimated
06:03AM -17.9911 -51.7891 138° Southeast  Level Estimated
06:04AM -18.0899 -51.6970 138° Southeast  Level Estimated
06:05AM -18.1887 -51.6048 138° Southeast  Level Estimated
06:05AM -19.1750 -50.5070 138° Southeast 529 609 31,000  Level FlightAware
06:06AM -18.2874 -51.5125 138° Southeast  Level Estimated
06:06AM -19.2320 -50.4450 134° Southeast 529 609 31,000  Level FlightAware
06:06AM -19.3040 -50.3720 136° Southeast 529 609 31,000  Level FlightAware
06:07AM -19.3530 -50.3230 137° Southeast 530 610 31,000  Level FlightAware
06:08AM -19.4160 -50.2620 138° Southeast 531 611 31,000  Level FlightAware
06:08AM -19.4730 -50.2060 137° Southeast 530 610 31,000  Level FlightAware
06:09AM -19.5400 -50.1420 138° Southeast 527 606 31,000  Level FlightAware
06:09AM -19.6040 -50.0790 137° Southeast 528 608 31,000  Level FlightAware
06:10AM -19.6680 -50.0170 138° Southeast 529 609 31,000  Level FlightAware
06:10AM -19.7270 -49.9600 138° Southeast 528 608 31,000  Level FlightAware
06:11AM -19.7840 -49.9040 137° Southeast 527 606 31,000  Level FlightAware
06:12AM -19.8520 -49.8370 137° Southeast 526 605 31,000  Level FlightAware
06:12AM -19.9130 -49.7780 138° Southeast 520 598 31,000  Level FlightAware
06:13AM -19.9800 -49.7120 137° Southeast 518 596 31,000  Level FlightAware
06:13AM -20.0430 -49.6500 137° Southeast 518 596 31,000  Level FlightAware
06:14AM -20.1010 -49.5940 138° Southeast 520 598 31,000  Level FlightAware
06:15AM -20.1630 -49.5320 137° Southeast 517 595 31,000  Level FlightAware
06:15AM -20.2320 -49.4650 138° Southeast 515 593 31,000  Level FlightAware
06:16AM -20.2830 -49.4140 137° Southeast 515 593 31,000  Level FlightAware
06:16AM -20.3500 -49.3470 137° Southeast 515 593 31,000  Level FlightAware
06:17AM -20.3940 -49.3050 138° Southeast 515 593 31,000  Level FlightAware
06:17AM -20.4570 -49.2420 137° Southeast 515 593 31,000  Level FlightAware
06:18AM -20.5200 -49.1790 137° Southeast 515 593 31,000  Level FlightAware
06:19AM -20.5840 -49.1160 137° Southeast 513 590 31,000  Level FlightAware
06:19AM -20.6430 -49.0580 137° Southeast 510 587 31,000  Level FlightAware
06:20AM -20.7040 -48.9960 136° Southeast 510 587 31,000  Level FlightAware
06:20AM -20.7600 -48.9410 137° Southeast 507 583 31,000  Level FlightAware
06:21AM -20.8220 -48.8790 137° Southeast 507 583 31,000  Level FlightAware
06:21AM -20.8840 -48.8170 137° Southeast 505 581 31,000  Level FlightAware
06:22AM -20.9410 -48.7610 137° Southeast 503 579 31,000  Level FlightAware
06:23AM -21.0040 -48.6980 137° Southeast 505 581 31,000  Level FlightAware
06:23AM -21.0610 -48.6400 136° Southeast 500 575 31,000  Level FlightAware
06:24AM -21.1190 -48.5830 137° Southeast 500 575 31,000  Level FlightAware
06:24AM -21.1820 -48.5190 137° Southeast 501 577 31,000  Level FlightAware
06:25AM -21.2400 -48.4610 137° Southeast 500 575 31,000  Level FlightAware
06:26AM -21.3020 -48.3990 137° Southeast 501 577 31,000  Level FlightAware
06:26AM -21.3610 -48.3390 137° Southeast 502 578 31,000  Level FlightAware
06:27AM -21.4160 -48.2830 137° Southeast 503 579 31,000  Level FlightAware
06:27AM -21.4770 -48.2220 137° Southeast 503 579 31,000  Level FlightAware
06:28AM -21.5290 -48.1700 137° Southeast 505 581 31,000  Level FlightAware
06:28AM -21.5920 -48.1050 136° Southeast 507 583 31,000  Level FlightAware
06:29AM -21.6580 -48.0380 137° Southeast 508 585 31,000  Level FlightAware
06:30AM -21.7180 -47.9780 137° Southeast 510 587 31,000  Level FlightAware
06:30AM -21.7790 -47.9160 137° Southeast 512 589 31,000  Level FlightAware
06:31AM -21.8330 -47.8610 137° Southeast 512 589 31,000  Level FlightAware
06:31AM -21.8910 -47.8020 137° Southeast 510 587 31,000  Level FlightAware
06:32AM -21.9580 -47.7340 137° Southeast 510 587 31,000 -300 Level FlightAware
06:33AM -22.0190 -47.6710 136° Southeast 507 583 30,700 -1,440 Descending FlightAware
06:33AM -22.0720 -47.6170 137° Southeast 508 585 29,400 -2,160 Descending FlightAware
06:34AM -22.1330 -47.5550 137° Southeast 497 572 28,300 -1,860 Descending FlightAware
06:34AM -22.1940 -47.4920 136° Southeast 483 556 27,200 -1,800 Descending FlightAware
06:35AM -22.2510 -47.4340 137° Southeast 469 540 26,200 -1,680 Descending FlightAware
06:35AM -22.3000 -47.3840 137° Southeast 457 526 25,300 -1,740 Descending FlightAware
06:36AM -22.3580 -47.3240 136° Southeast 444 511 24,200 -1,740 Descending FlightAware
06:37AM -22.4170 -47.2630 136° Southeast 430 495 23,100 -1,620 Descending FlightAware
06:37AM -22.4680 -47.2110 137° Southeast 420 483 22,200 -1,620 Descending FlightAware
06:38AM -22.5190 -47.1580 136° Southeast 410 472 21,200 -1,680 Descending FlightAware
06:38AM -22.5630 -47.1130 137° Southeast 402 463 20,300 -1,680 Descending FlightAware
06:39AM -22.6340 -47.0730 153° Southeast 387 445 19,100 -1,680 Descending FlightAware
06:40AM -22.6860 -47.0520 160° South 381 438 18,200 -1,680 Descending FlightAware
06:40AM -22.7470 -47.0270 159° South 376 433 17,200 -1,680 Descending FlightAware
06:41AM -22.8070 -47.0020 159° South 370 426 16,200 -1,680 Descending FlightAware
06:41AM -22.8580 -46.9800 158° South 365 420 15,300 -1,800 Descending FlightAware
06:42AM -22.9150 -46.9560 159° South 365 420 14,200 -1,980 Descending FlightAware
06:43AM -22.9680 -46.9330 158° South 360 414 13,000 -1,920 Descending FlightAware
06:43AM -23.0250 -46.9100 160° South 325 374 11,900 -1,680 Descending FlightAware
06:44AM -23.0690 -46.8910 158° South 314 361 11,100 -1,620 Descending FlightAware
06:44AM -23.1170 -46.8710 159° South 311 358 10,100 -1,620 Descending FlightAware
06:45AM -23.1420 -46.8600 158° South 299 344 9,600 -1,440 Descending FlightAware
06:45AM -23.1650 -46.8510 160° South 289 333 9,200 -1,200 Descending FlightAware
06:45AM -23.1870 -46.8410 157° South 285 328 8,900 -1,320 Descending FlightAware
06:46AM -23.2130 -46.8300 159° South 287 330 8,400 -1,500 Descending FlightAware
06:46AM -23.2330 -46.8220 160° South 286 329 8,000 -1,500 Descending FlightAware
06:46AM -23.2570 -46.8120 159° South 285 328 7,500 -1,080 Descending FlightAware
06:47AM -23.2800 -46.8020 158° South 265 305 7,300 -540 Descending FlightAware
06:47AM -23.2960 -46.7950 158° South 251 289 7,200 -420 Descending FlightAware
06:47AM -23.3170 -46.7860 159° South 228 262 7,100 -300 Descending FlightAware
06:48AM -23.3380 -46.7770 159° South 215 247 7,000 -480 Descending FlightAware
06:48AM -23.3560 -46.7700 160° South 212 244 6,800 -600 Descending FlightAware
06:48AM -23.3760 -46.7590 153° Southeast 206 237 6,600 -660 Descending FlightAware
06:48AM -23.3870 -46.7490 140° Southeast 205 236 6,400 -900 Descending FlightAware
06:49AM -23.4070 -46.7300 139° Southeast 201 231 6,000 -900 Descending FlightAware
06:49AM -23.4200 -46.7180 140° Southeast 197 227 5,700 -960 Descending FlightAware
06:50AM -23.4330 -46.7060 140° Southeast 188 216 5,400 -780 Descending FlightAware
06:50AM -23.4460 -46.6920 135° Southeast 180 207 5,200 -600 Descending FlightAware
06:50AM -23.4500 -46.6860 126° Southeast 179 206 5,100 -780 Descending FlightAware
06:50AM -23.4560 -46.6730 117° Southeast 180 207 4,900 -600 Descending FlightAware
06:51AM -23.4620 -46.6600 117° Southeast 178 205 4,800 -600 Descending FlightAware
06:51AM -23.4710 -46.6390 115° Southeast 176 203 4,500 -600 Descending FlightAware
06:51AM -23.4740 -46.6280 107° East 176 203 4,400 -660 Descending FlightAware
06:51AM -23.4750 -46.6230 102° East 178 205 4,300 -480 Descending FlightAware
06:52AM -23.4700 -46.6030 75° East 178 205 4,200 -480 Descending FlightAware
06:52AM -23.4660 -46.5860 76° East 166 191 4,000 -840 Descending FlightAware
06:52AM -23.4620 -46.5730 71° East 162 186 3,700 -1,020 Descending FlightAware
06:53AM -23.4580 -46.5590 73° East 144 166 3,400 -780 Descending FlightAware
06:53AM -23.4550 -46.5460 76° East 142 163 3,200 -600 Descending FlightAware
06:53AM -23.4510 -46.5310 74° East 144 166 3,000 -780 Descending FlightAware
06:54AM -23.4450 -46.5110 72° East 149 171 2,600 -900 Descending FlightAware
06:54AM -23.4390 -46.4870 75° East 148 170 2,100 -900 Descending FlightAware
06:55AM -23.4360 -46.4760 73° East 135 155 -6,300 Descending FlightAware
06:55AM -23.4320 -46.4610 74° East 135 155  Level FlightAware